AEST,Max TemperatureF,Mean TemperatureF,Min TemperatureF,Max Dew PointF,MeanDew PointF,Min DewpointF,Max Humidity, Mean Humidity, Min Humidity, Max Sea Level PressureIn, Mean Sea Level PressureIn, Min Sea Level PressureIn, Max VisibilityMiles, Mean VisibilityMiles, Min VisibilityMiles, Max Wind SpeedMPH, Mean Wind SpeedMPH, Max Gust SpeedMPH,PrecipitationIn, CloudCover, Events, WindDirDegrees
2012-11-1,87,80,72,70,66,61,88,63,36,30.00,29.91,29.83,19,8,6,17,9,,0.00,2,Rain,132
2012-11-2,84,74,65,68,65,61,94,69,44,29.92,29.86,29.77,19,7,6,12,5,,0.00,1,,16
2012-11-3,87,75,63,70,67,64,100,74,44,29.92,29.84,29.77,19,7,5,10,4,,0.00,2,Fog,47
2012-11-4,87,80,72,68,66,63,83,63,35,29.96,29.90,29.83,19,7,6,17,9,,0.00,2,,136
2012-11-5,89,82,74,70,67,62,78,62,31,29.99,29.93,29.86,19,7,6,18,11,,0.12,2,Rain,143
2012-11-6,87,80,72,72,67,61,94,68,36,29.99,29.92,29.86,19,7,2,20,10,,0.01,3,Rain,151
2012-11-7,87,78,70,67,65,60,83,62,34,29.94,29.88,29.80,19,7,6,17,10,,0.00,2,,144
2012-11-8,86,78,71,66,65,62,83,63,38,29.92,29.86,29.80,19,7,6,17,8,,0.00,3,Rain,130
2012-11-9,84,74,65,70,66,63,94,69,44,29.96,29.90,29.86,19,7,6,14,6,,0.00,4,Rain,125
2012-11-10,84,76,68,73,69,65,94,79,54,29.96,29.91,29.86,16,7,4,15,5,,0.03,6,Rain,161
2012-11-11,89,80,71,72,67,61,88,65,35,29.99,29.92,29.86,19,7,6,17,9,,0.01,2,,146
2012-11-12,86,80,73,73,70,66,94,77,51,30.03,29.97,29.92,19,7,3,25,11,31,0.04,5,Rain,157
2012-11-13,84,77,70,72,66,62,94,69,41,30.01,29.96,29.89,16,7,3,24,14,33,0.12,5,Rain,151
2012-11-14,87,79,71,70,66,61,91,68,35,30.00,29.95,29.92,16,7,3,21,12,,0.16,4,Rain,162
2012-11-15,86,78,70,68,66,63,88,64,36,29.99,29.93,29.86,19,7,6,17,9,,0.00,2,Rain,149
2012-11-16,84,76,68,70,68,64,88,70,51,29.95,29.88,29.80,19,7,6,12,8,,0.00,3,,84
2012-11-17,86,78,70,72,70,68,100,74,52,29.89,29.83,29.77,19,7,6,10,4,,0.00,2,,14
2012-11-18,84,78,73,74,72,69,89,77,52,29.91,29.82,29.74,19,7,6,13,5,,0.01,5,,43
2012-11-19,89,82,74,75,72,68,89,75,46,29.86,29.82,29.77,19,8,5,17,6,,0.02,4,Rain,314
2012-11-20,86,78,70,75,73,69,94,79,58,29.89,29.83,29.77,19,7,6,10,5,,0.00,4,,36
2012-11-21,87,82,77,75,73,70,89,71,49,29.92,29.86,29.80,19,7,6,15,8,,0.00,3,,94
2012-11-22,87,82,75,73,71,66,89,69,49,29.93,29.87,29.80,19,7,6,13,5,,0.00,3,Rain,107
2012-11-23,87,79,71,72,68,64,94,68,43,29.98,29.91,29.86,19,7,6,13,5,,0.00,1,,109
2012-11-24,88,78,69,68,66,63,88,62,35,30.00,29.95,29.89,19,7,6,18,7,21,0.00,2,,119
2012-11-25,89,79,69,72,67,63,94,64,33,30.00,29.94,29.89,19,7,6,17,8,,0.00,2,Rain,134
2012-11-26,89,82,75,70,67,63,74,62,40,29.96,29.91,29.83,19,7,6,18,9,,0.00,3,,136
2012-11-27,89,82,74,68,64,57,74,57,27,29.95,29.90,29.83,19,7,6,20,10,,0.00,2,,147
2012-11-28,87,80,72,68,66,63,83,61,40,29.95,29.89,29.83,19,7,6,17,10,,0.00,3,Rain,142
2012-11-29,91,82,73,72,67,63,78,60,35,29.93,29.88,29.80,19,7,6,18,10,,0.00,2,,136
2012-11-30,84,80,75,77,73,70,94,82,64,29.96,29.90,29.86,19,6,2,17,10,25,0.39,5,Rain,160